Time;durP1;ratioP1;P1;durP2;ratioP2;P2;SDS_P1;SDS_P2;PMS_P1;PMS_P2;Temp;Humidity;BMP_temperature;BMP_pressure;BME280_temperature;BME280_humidity;BME280_pressure;Samples;Min_cycle;Max_cycle;Signal;HPM_P1;HPM_P2
2023/12/13 00:00:17;;;;;;;2.70;0.97;;;;;;;11.13;100.00;96795.78;4105256;28;20620;-91
2023/12/13 00:02:19;;;;;;;3.40;1.00;;;;;;;11.09;100.00;96783.16;4105711;28;20640;-91
2023/12/13 00:04:23;;;;;;;3.00;1.53;;;;;;;11.07;100.00;96769.44;4078658;29;20645;-89
2023/12/13 00:06:26;;;;;;;7.60;2.57;;;;;;;11.01;100.00;96764.75;4089618;28;20730;-88
2023/12/13 00:08:31;;;;;;;3.10;1.63;;;;;;;10.96;100.00;96766.94;4102473;28;20707;-88
2023/12/13 00:10:34;;;;;;;4.73;2.03;;;;;;;10.99;100.00;96771.88;4104712;28;20636;-88
2023/12/13 00:12:37;;;;;;;4.83;1.43;;;;;;;11.02;100.00;96764.63;4104567;28;20712;-88
2023/12/13 00:14:41;;;;;;;2.23;1.17;;;;;;;11.03;100.00;96768.88;4103154;28;20709;-87
2023/12/13 00:16:44;;;;;;;3.50;1.00;;;;;;;11.04;100.00;96769.72;4101864;28;20757;-88
2023/12/13 00:18:47;;;;;;;4.50;1.37;;;;;;;11.06;100.00;96758.16;4089058;28;20649;-88
2023/12/13 00:20:51;;;;;;;3.13;0.90;;;;;;;11.07;100.00;96759.81;4104855;28;20695;-87
2023/12/13 00:22:55;;;;;;;3.70;1.23;;;;;;;11.09;100.00;96762.28;4103990;28;20638;-90
2023/12/13 00:24:59;;;;;;;2.63;0.80;;;;;;;11.09;100.00;96762.28;4108888;28;20640;-90
2023/12/13 00:27:03;;;;;;;6.00;0.90;;;;;;;11.09;100.00;96747.44;4105618;28;20688;-91
2023/12/13 00:29:06;;;;;;;2.10;0.80;;;;;;;11.09;100.00;96746.63;4105794;28;20636;-90
2023/12/13 00:31:09;;;;;;;3.50;1.20;;;;;;;11.08;100.00;96745.81;4103784;28;20683;-90
2023/12/13 00:33:13;;;;;;;5.93;1.23;;;;;;;11.07;100.00;96746.75;4107696;28;20667;-90
2023/12/13 00:35:17;;;;;;;3.20;1.00;;;;;;;11.07;100.00;96740.72;4107611;28;20727;-90
2023/12/13 00:37:20;;;;;;;2.10;0.90;;;;;;;11.05;100.00;96740.03;4090199;28;20721;-90
2023/12/13 00:39:22;;;;;;;1.90;1.03;;;;;;;11.04;100.00;96727.97;4091266;28;20623;-89
2023/12/13 00:41:27;;;;;;;2.37;1.10;;;;;;;11.04;100.00;96731.38;4090100;29;20796;-90
2023/12/13 00:43:30;;;;;;;2.23;0.80;;;;;;;11.02;100.00;96730.72;4101641;28;20632;-90
2023/12/13 00:45:32;;;;;;;1.70;0.70;;;;;;;11.00;100.00;96724.78;4090618;28;20660;-89
2023/12/13 00:47:35;;;;;;;2.10;1.10;;;;;;;10.98;100.00;96724.13;4103107;28;20624;-90
2023/12/13 00:49:40;;;;;;;3.00;0.97;;;;;;;10.99;100.00;96724.94;4088890;28;20726;-90
2023/12/13 00:51:43;;;;;;;3.10;0.90;;;;;;;10.98;100.00;96721.50;4106290;28;20623;-90
2023/12/13 00:53:47;;;;;;;2.03;0.80;;;;;;;10.98;100.00;96724.13;4108279;28;20629;-90
2023/12/13 00:55:52;;;;;;;2.47;0.80;;;;;;;10.96;100.00;96720.84;4097115;28;20698;-91
2023/12/13 00:57:57;;;;;;;3.07;0.90;;;;;;;10.96;100.00;96720.84;4111805;28;20631;-90
2023/12/13 01:00:00;;;;;;;2.00;0.93;;;;;;;10.93;100.00;96726.34;4092706;28;20633;-90
2023/12/13 01:02:06;;;;;;;2.13;0.73;;;;;;;10.94;100.00;96725.34;4092000;28;20625;-90
2023/12/13 01:04:10;;;;;;;5.37;1.20;;;;;;;10.96;100.00;96720.00;4110279;28;20616;-90
2023/12/13 01:06:13;;;;;;;2.63;1.10;;;;;;;10.95;100.00;96715.75;4107471;28;20730;-90
2023/12/13 01:08:17;;;;;;;3.70;1.23;;;;;;;11.01;100.00;96717.81;4105630;28;20999;-91
2023/12/13 01:10:20;;;;;;;1.80;0.80;;;;;;;11.00;100.00;96719.56;4105725;28;20663;-90
2023/12/13 01:12:22;;;;;;;1.90;1.00;;;;;;;11.01;100.00;96718.63;4110214;28;21008;-90
2023/12/13 01:14:27;;;;;;;2.37;1.33;;;;;;;11.02;100.00;96715.06;4107840;28;21372;-90
2023/12/13 01:16:29;;;;;;;3.53;1.07;;;;;;;10.99;100.00;96719.72;4107632;28;20665;-91
2023/12/13 01:18:33;;;;;;;2.27;0.83;;;;;;;10.97;100.00;96726.88;4081538;29;20630;-90
2023/12/13 01:20:36;;;;;;;3.17;0.93;;;;;;;10.96;100.00;96725.22;4102937;28;20633;-91
2023/12/13 01:22:39;;;;;;;3.70;1.47;;;;;;;10.98;100.00;96728.53;4097647;28;20617;-90
2023/12/13 01:24:42;;;;;;;2.90;0.90;;;;;;;10.96;100.00;96731.28;4101825;28;20670;-91
2023/12/13 01:26:46;;;;;;;2.40;1.00;;;;;;;10.94;100.00;96730.56;4108780;28;20641;-91
2023/12/13 01:28:49;;;;;;;2.73;1.10;;;;;;;10.91;99.99;96723.03;4088257;28;20641;-90
2023/12/13 01:30:53;;;;;;;2.80;1.20;;;;;;;10.90;100.00;96720.59;4086903;28;21531;-90
2023/12/13 01:32:56;;;;;;;2.63;1.13;;;;;;;10.88;100.00;96725.94;4103436;28;20739;-91
2023/12/13 01:34:59;;;;;;;3.07;1.00;;;;;;;10.86;100.00;96722.63;4105565;28;20632;-91
2023/12/13 01:37:02;;;;;;;3.03;1.20;;;;;;;10.87;100.00;96719.06;4108386;28;20669;-90
2023/12/13 01:39:07;;;;;;;2.13;0.70;;;;;;;10.87;100.00;96720.88;4107532;28;20671;-90
2023/12/13 01:41:10;;;;;;;2.73;1.20;;;;;;;10.88;100.00;96719.88;4109447;28;20624;-90
2023/12/13 01:43:22;;;;;;;3.73;1.27;;;;;;;10.87;100.00;96726.09;4096437;28;21207;-91
2023/12/13 01:45:25;;;;;;;2.23;0.90;;;;;;;10.87;100.00;96721.69;4107469;28;20656;-91
2023/12/13 01:47:31;;;;;;;1.93;0.80;;;;;;;10.87;99.98;96724.28;4088105;29;20665;-90
2023/12/13 01:49:34;;;;;;;2.10;1.00;;;;;;;10.92;100.00;96719.47;4105257;28;21258;-90
2023/12/13 01:51:38;;;;;;;1.90;0.83;;;;;;;10.92;99.10;96721.25;4108639;28;20643;-90
2023/12/13 01:53:41;;;;;;;1.80;0.80;;;;;;;10.93;99.03;96707.22;4086885;28;21001;-90
2023/12/13 01:55:43;;;;;;;2.93;0.80;;;;;;;10.93;99.14;96715.91;4105607;28;20631;-90
2023/12/13 01:57:46;;;;;;;3.30;0.87;;;;;;;10.84;99.58;96708.09;4102303;28;20629;-90
2023/12/13 01:59:50;;;;;;;2.20;1.07;;;;;;;10.81;99.49;96706.59;4084008;29;20626;-90
2023/12/13 02:01:53;;;;;;;2.50;1.00;;;;;;;10.80;100.00;96703.31;4111524;28;20612;-90
2023/12/13 02:03:57;;;;;;;3.60;1.10;;;;;;;10.80;100.00;96695.47;4090867;28;20655;-91
2023/12/13 02:06:01;;;;;;;2.97;1.00;;;;;;;10.80;100.00;96695.47;4111906;28;20655;-91
2023/12/13 02:08:05;;;;;;;2.23;0.97;;;;;;;10.78;100.00;96697.38;4094396;28;20641;-91
2023/12/13 02:10:08;;;;;;;3.03;1.00;;;;;;;10.79;100.00;96699.03;4104437;28;20645;-90
2023/12/13 02:12:12;;;;;;;1.80;0.70;;;;;;;10.78;100.00;96698.22;4103215;28;20660;-91
2023/12/13 02:14:15;;;;;;;2.37;0.80;;;;;;;10.76;100.00;96694.09;4091574;28;20692;-91
2023/12/13 02:16:18;;;;;;;2.40;0.73;;;;;;;10.75;100.00;96692.44;4108299;28;20711;-91
2023/12/13 02:18:22;;;;;;;3.10;1.10;;;;;;;10.74;100.00;96690.81;4110350;28;20629;-90
2023/12/13 02:20:27;;;;;;;2.10;0.70;;;;;;;10.74;100.00;96693.44;4092604;28;20676;-90
2023/12/13 02:22:32;;;;;;;1.30;0.70;;;;;;;10.76;100.00;96694.91;4108169;28;20719;-91
2023/12/13 02:24:38;;;;;;;2.13;0.90;;;;;;;10.78;100.00;96700.00;4108168;28;20629;-90
2023/12/13 02:26:45;;;;;;;2.80;0.70;;;;;;;10.73;100.00;96691.78;4113395;28;20651;-91
2023/12/13 02:28:49;;;;;;;2.17;0.73;;;;;;;10.70;100.00;96702.50;4095944;28;20610;-91
2023/12/13 02:30:53;;;;;;;1.90;0.73;;;;;;;10.68;100.00;96694.00;4094280;28;20621;-90
2023/12/13 02:32:57;;;;;;;2.13;0.70;;;;;;;10.71;100.00;96693.72;4106197;28;20645;-90
2023/12/13 02:35:00;;;;;;;5.27;0.87;;;;;;;10.70;100.00;96692.06;4107423;28;21197;-91
2023/12/13 02:37:04;;;;;;;1.97;0.70;;;;;;;10.71;100.00;96693.72;4104751;28;20652;-91
2023/12/13 02:39:08;;;;;;;3.13;1.43;;;;;;;10.73;100.00;96697.00;4104740;28;20636;-91
2023/12/13 02:41:14;;;;;;;3.80;0.80;;;;;;;10.72;100.00;96690.97;4104457;28;20636;-90
2023/12/13 02:43:20;;;;;;;2.53;0.87;;;;;;;10.73;100.00;96694.38;4101579;28;20647;-90
2023/12/13 02:45:24;;;;;;;2.73;0.80;;;;;;;10.74;100.00;96702.06;4097115;28;20633;-90
2023/12/13 02:47:27;;;;;;;2.87;0.90;;;;;;;10.76;100.00;96691.50;4104530;28;20660;-90
2023/12/13 02:49:30;;;;;;;3.23;1.10;;;;;;;10.76;100.00;96696.72;4115819;28;20625;-91
2023/12/13 02:51:32;;;;;;;2.47;1.00;;;;;;;10.73;100.00;96690.00;4106476;28;20690;-90
2023/12/13 02:53:36;;;;;;;2.33;1.00;;;;;;;10.73;100.00;96702.22;4104798;28;20637;-90
2023/12/13 02:55:40;;;;;;;2.27;0.90;;;;;;;10.72;100.00;96700.56;4108509;28;20692;-90
2023/12/13 02:57:43;;;;;;;2.20;0.70;;;;;;;10.72;100.00;96700.56;4106786;28;20687;-90
2023/12/13 02:59:47;;;;;;;3.00;0.80;;;;;;;10.72;100.00;96701.41;4105125;28;21060;-89
2023/12/13 03:01:50;;;;;;;3.10;0.90;;;;;;;10.71;100.00;96691.09;4105820;28;20768;-90
2023/12/13 03:03:53;;;;;;;2.07;1.00;;;;;;;10.71;100.00;96691.09;4105510;28;20680;-90
2023/12/13 03:05:56;;;;;;;2.03;1.13;;;;;;;10.65;100.00;96686.44;4076855;29;20630;-90
2023/12/13 03:07:59;;;;;;;2.93;1.20;;;;;;;10.66;100.00;96694.13;4095028;28;20728;-90
2023/12/13 03:10:02;;;;;;;3.03;1.10;;;;;;;10.66;100.00;96691.53;4105438;28;27508;-90
2023/12/13 03:12:07;;;;;;;5.17;1.30;;;;;;;10.67;100.00;96692.34;4100305;28;20699;-90
2023/12/13 03:14:11;;;;;;;2.90;1.10;;;;;;;10.66;100.00;96688.91;4104422;28;20702;-90
2023/12/13 03:16:14;;;;;;;2.23;1.00;;;;;;;10.67;100.00;96697.56;4090241;28;20659;-90
2023/12/13 03:18:18;;;;;;;2.37;1.27;;;;;;;10.62;100.00;96689.34;4106817;28;20667;-90
2023/12/13 03:20:21;;;;;;;2.87;1.20;;;;;;;10.61;100.00;96695.50;4092047;28;20724;-90
2023/12/13 03:22:24;;;;;;;4.30;0.90;;;;;;;10.61;100.00;96693.72;4105235;28;20657;-90
2023/12/13 03:24:28;;;;;;;3.70;1.50;;;;;;;10.62;100.00;96690.16;4094092;28;20630;-90
2023/12/13 03:26:33;;;;;;;1.90;0.90;;;;;;;10.63;100.00;96686.59;4106252;28;20637;-90
2023/12/13 03:28:37;;;;;;;1.50;0.80;;;;;;;10.65;100.00;96684.66;4104645;28;20719;-90
2023/12/13 03:30:41;;;;;;;2.33;0.93;;;;;;;10.63;100.00;96685.75;4094033;28;20657;-90
2023/12/13 03:32:44;;;;;;;2.10;0.97;;;;;;;10.62;100.00;96690.16;4103002;28;20988;-90
2023/12/13 03:34:50;;;;;;;2.60;1.00;;;;;;;10.62;100.00;96691.94;4094667;28;21281;-90
2023/12/13 03:36:53;;;;;;;2.13;0.93;;;;;;;10.62;100.00;96689.34;4107037;28;20638;-90
2023/12/13 03:38:56;;;;;;;2.83;1.10;;;;;;;10.58;100.00;96680.94;4110525;28;20609;-90
2023/12/13 03:40:59;;;;;;;1.70;0.90;;;;;;;10.44;100.00;96675.34;4110876;28;20687;-90
2023/12/13 03:43:03;;;;;;;4.17;1.20;;;;;;;10.32;100.00;96668.66;4089731;28;20621;-90
2023/12/13 03:45:07;;;;;;;3.40;1.03;;;;;;;10.27;100.00;96655.22;4108613;28;20640;-90
2023/12/13 03:47:12;;;;;;;2.23;0.90;;;;;;;10.21;100.00;96650.56;4103496;28;21203;-90
2023/12/13 03:49:16;;;;;;;3.33;0.80;;;;;;;10.15;100.00;96647.66;4093528;28;20694;-90
2023/12/13 03:51:20;;;;;;;2.33;1.07;;;;;;;10.11;100.00;96652.31;4090718;28;20703;-90
2023/12/13 03:53:22;;;;;;;2.80;0.90;;;;;;;10.03;100.00;96649.59;4106385;28;20628;-90
2023/12/13 03:55:25;;;;;;;2.00;0.90;;;;;;;10.01;100.00;96654.13;4094736;28;20625;-90
2023/12/13 03:57:28;;;;;;;2.63;1.00;;;;;;;10.02;100.00;96654.94;4112530;28;21206;-90
2023/12/13 03:59:34;;;;;;;1.80;0.80;;;;;;;10.04;100.00;96656.47;4107721;28;20967;-90
2023/12/13 04:01:39;;;;;;;3.70;1.00;;;;;;;10.06;100.00;96646.72;4110471;28;20715;-90
2023/12/13 04:03:43;;;;;;;2.40;1.00;;;;;;;10.08;100.00;96652.59;4098400;28;20633;-90
2023/12/13 04:05:46;;;;;;;2.55;0.90;;;;;;;10.13;100.00;96655.63;4092856;28;20960;-90
2023/12/13 04:07:49;;;;;;;1.88;0.90;;;;;;;10.18;100.00;96652.59;4092042;28;20209;-89
2023/12/13 04:09:52;;;;;;;1.93;0.83;;;;;;;10.18;100.00;96644.78;4111734;28;20201;-89
2023/12/13 04:11:55;;;;;;;3.37;1.20;;;;;;;10.15;100.00;96642.44;4091805;28;20622;-90
2023/12/13 04:13:57;;;;;;;1.80;0.87;;;;;;;10.13;100.00;96642.63;4095450;28;20616;-89
2023/12/13 04:16:00;;;;;;;3.40;1.30;;;;;;;10.13;100.00;96634.81;4109081;28;20616;-90
2023/12/13 04:18:05;;;;;;;5.70;1.20;;;;;;;10.13;100.00;96639.16;4112986;28;20666;-90
2023/12/13 04:20:09;;;;;;;4.10;1.00;;;;;;;10.13;100.00;96642.63;4111191;28;20612;-90
2023/12/13 04:22:13;;;;;;;2.43;0.80;;;;;;;10.17;100.00;96630.94;4096018;28;21185;-90
2023/12/13 04:24:16;;;;;;;2.40;1.10;;;;;;;10.17;100.00;96620.50;4107367;28;20627;-89
2023/12/13 04:26:19;;;;;;;2.73;1.00;;;;;;;10.19;100.00;96626.41;4102479;28;20664;-89
2023/12/13 04:28:23;;;;;;;2.57;1.10;;;;;;;10.22;100.00;96633.94;4096409;28;20630;-89
2023/12/13 04:30:26;;;;;;;2.70;0.83;;;;;;;10.21;100.00;96637.53;4105745;28;20736;-89
2023/12/13 04:32:29;;;;;;;2.77;1.20;;;;;;;10.21;100.00;96636.69;4092555;28;20668;-89
2023/12/13 04:34:34;;;;;;;2.43;0.93;;;;;;;10.20;100.00;96628.06;4106398;28;20648;-89
2023/12/13 04:36:37;;;;;;;4.40;1.10;;;;;;;10.23;100.00;96624.38;4095164;28;20966;-88
2023/12/13 04:38:40;;;;;;;3.60;0.90;;;;;;;10.28;100.00;96622.16;4091305;28;20665;-89
2023/12/13 04:40:45;;;;;;;5.80;1.20;;;;;;;10.29;100.00;96619.41;4106733;28;21273;-89
2023/12/13 04:42:48;;;;;;;5.00;1.03;;;;;;;10.30;100.00;96610.66;4092686;28;20684;-90
2023/12/13 04:44:51;;;;;;;1.90;1.03;;;;;;;10.32;100.00;96610.50;4096173;28;20639;-89
2023/12/13 04:46:55;;;;;;;2.50;0.93;;;;;;;10.31;100.00;96612.28;4093564;28;20629;-89
2023/12/13 04:48:58;;;;;;;3.30;0.90;;;;;;;10.30;100.00;96607.19;4108582;28;20628;-89
2023/12/13 04:51:03;;;;;;;3.77;0.90;;;;;;;10.29;100.00;96602.97;4112189;28;20627;-89
2023/12/13 04:53:06;;;;;;;4.00;1.00;;;;;;;10.30;100.00;96620.22;4106779;28;20729;-89
2023/12/13 04:55:09;;;;;;;2.83;1.07;;;;;;;10.31;100.00;96616.66;4107290;28;20624;-89
2023/12/13 04:57:12;;;;;;;5.20;1.37;;;;;;;10.29;100.00;96603.78;4090088;28;20625;-89
2023/12/13 04:59:15;;;;;;;4.13;1.07;;;;;;;10.31;100.00;96612.28;4106911;28;20768;-90
2023/12/13 05:01:19;;;;;;;1.70;0.90;;;;;;;10.30;100.00;96604.59;4106972;28;21218;-89
2023/12/13 05:03:22;;;;;;;2.57;0.90;;;;;;;10.31;100.00;96609.66;4109748;28;21158;-89
2023/12/13 05:05:25;;;;;;;1.97;0.90;;;;;;;10.32;100.00;96605.28;4092837;28;20652;-90
2023/12/13 05:07:30;;;;;;;2.07;1.00;;;;;;;10.32;99.87;96593.06;4110451;28;20667;-90
2023/12/13 05:09:33;;;;;;;1.70;0.90;;;;;;;10.30;99.54;96592.41;4107815;28;20628;-90
2023/12/13 05:11:37;;;;;;;2.40;1.20;;;;;;;10.24;98.95;96595.56;4109977;28;20627;-89
2023/12/13 05:13:40;;;;;;;4.53;1.30;;;;;;;10.18;99.70;96592.69;4106089;28;20625;-90
2023/12/13 05:15:43;;;;;;;4.70;1.77;;;;;;;10.15;99.54;96595.56;4098309;28;20624;-90
2023/12/13 05:17:46;;;;;;;3.83;1.30;;;;;;;10.11;99.20;96595.03;4091559;28;20739;-89
2023/12/13 05:19:50;;;;;;;3.30;1.13;;;;;;;10.13;99.98;96594.88;4089916;28;20648;-90
2023/12/13 05:21:58;;;;;;;1.70;1.00;;;;;;;10.12;99.43;96591.47;4107369;28;20638;-89
2023/12/13 05:24:02;;;;;;;3.40;1.23;;;;;;;10.12;99.19;96594.06;4110815;28;20731;-90
2023/12/13 05:26:06;;;;;;;5.93;1.60;;;;;;;10.13;100.00;96585.31;4094620;28;20661;-89
2023/12/13 05:28:09;;;;;;;2.40;1.60;;;;;;;10.11;100.00;96584.59;4103454;28;20750;-90
2023/12/13 05:30:12;;;;;;;2.37;1.70;;;;;;;10.09;100.00;96589.13;4107637;28;21042;-89
2023/12/13 05:32:16;;;;;;;3.53;1.97;;;;;;;10.09;100.00;96583.13;4104040;28;20662;-89
2023/12/13 05:34:19;;;;;;;3.43;1.60;;;;;;;10.11;100.00;96587.22;4095062;28;20772;-89
2023/12/13 05:36:22;;;;;;;3.43;1.90;;;;;;;10.10;100.00;96575.16;4110235;28;21272;-89
2023/12/13 05:38:25;;;;;;;2.67;2.00;;;;;;;10.10;100.00;96579.53;4103275;28;21500;-90
2023/12/13 05:40:31;;;;;;;2.43;1.70;;;;;;;10.11;100.00;96583.78;4105049;28;20736;-90
2023/12/13 05:42:34;;;;;;;3.53;1.70;;;;;;;10.11;100.00;96575.97;4105418;28;20621;-89
2023/12/13 05:44:38;;;;;;;4.87;1.80;;;;;;;10.11;100.00;96579.41;4107391;28;20639;-89
2023/12/13 05:46:43;;;;;;;5.30;1.40;;;;;;;10.12;100.00;96586.25;4090986;29;21022;-90
2023/12/13 05:48:46;;;;;;;3.27;1.90;;;;;;;10.15;100.00;96583.38;4108696;28;20667;-90
2023/12/13 05:50:49;;;;;;;3.50;1.60;;;;;;;10.16;100.00;96577.19;4106361;28;20624;-90
2023/12/13 05:52:51;;;;;;;2.57;1.50;;;;;;;10.16;100.00;96576.38;4104511;28;21028;-90
2023/12/13 05:54:54;;;;;;;3.80;2.07;;;;;;;10.16;100.00;96577.19;4107954;28;20632;-90
2023/12/13 05:56:59;;;;;;;4.10;1.70;;;;;;;10.18;100.00;96570.06;4106954;28;20651;-89
2023/12/13 05:59:02;;;;;;;3.50;1.60;;;;;;;10.15;100.00;96570.34;4106396;28;20664;-90
2023/12/13 06:01:06;;;;;;;2.03;1.43;;;;;;;10.16;100.00;96574.56;4090326;28;20685;-90
2023/12/13 06:03:10;;;;;;;4.77;2.37;;;;;;;10.16;100.00;96571.97;4089860;28;20633;-90
2023/12/13 06:05:14;;;;;;;3.75;1.30;;;;;;;10.16;100.00;96571.16;4103747;28;20712;-89
2023/12/13 06:07:17;;;;;;;1.93;0.90;;;;;;;10.16;100.00;96569.38;4106076;28;20703;-90
2023/12/13 06:09:20;;;;;;;2.33;1.17;;;;;;;10.17;100.00;96567.59;4096176;28;20656;-90
2023/12/13 06:11:24;;;;;;;2.17;1.03;;;;;;;10.22;100.00;96566.22;4106037;28;20675;-90
2023/12/13 06:13:28;;;;;;;3.40;1.10;;;;;;;10.25;100.00;96565.13;4109288;28;20712;-90
2023/12/13 06:15:32;;;;;;;4.03;1.37;;;;;;;10.25;100.00;96567.72;4104726;28;20637;-90
2023/12/13 06:17:35;;;;;;;4.20;3.00;;;;;;;10.20;100.00;96559.50;4090400;28;21029;-90
2023/12/13 06:19:39;;;;;;;5.57;2.60;;;;;;;10.14;100.00;96555.66;4091500;28;20662;-89
2023/12/13 06:21:42;;;;;;;5.57;2.40;;;;;;;10.13;100.00;96546.22;4103509;28;21202;-90
2023/12/13 06:23:45;;;;;;;4.23;2.57;;;;;;;10.14;100.00;96560.88;4101833;28;20715;-89
2023/12/13 06:25:48;;;;;;;5.47;2.30;;;;;;;10.12;100.00;96552.41;4108476;28;20661;-89
2023/12/13 06:27:51;;;;;;;2.70;1.60;;;;;;;10.13;100.00;96550.59;4111592;28;21174;-89
2023/12/13 06:29:55;;;;;;;3.53;1.57;;;;;;;10.09;100.00;96547.47;4111847;28;21238;-90
2023/12/13 06:31:59;;;;;;;5.40;2.00;;;;;;;10.11;100.00;96555.13;4102692;28;20726;-90
2023/12/13 06:34:02;;;;;;;3.70;1.60;;;;;;;10.10;100.00;96562.16;4107430;28;20666;-90
2023/12/13 06:36:06;;;;;;;5.23;1.93;;;;;;;10.12;100.00;96549.78;4107215;28;21048;-90
2023/12/13 06:38:08;;;;;;;1.73;1.40;;;;;;;10.12;100.00;96560.22;4094818;28;20648;-89
2023/12/13 06:40:14;;;;;;;3.43;1.23;;;;;;;10.14;100.00;96558.28;4105591;28;21047;-90
2023/12/13 06:42:17;;;;;;;2.97;1.30;;;;;;;10.16;100.00;96558.13;4112124;28;20660;-89
2023/12/13 06:44:21;;;;;;;2.97;1.50;;;;;;;10.13;100.00;96556.66;4108137;28;20653;-89
2023/12/13 06:46:26;;;;;;;5.03;1.60;;;;;;;10.12;100.00;96549.78;4104331;28;25308;-89
2023/12/13 06:48:29;;;;;;;7.23;4.60;;;;;;;10.12;100.00;96562.81;4093082;28;20680;-90
2023/12/13 06:50:32;;;;;;;6.90;3.93;;;;;;;10.13;100.00;96554.06;4088413;28;20636;-90
2023/12/13 06:52:35;;;;;;;5.80;3.47;;;;;;;10.14;100.00;96547.03;4086601;28;20637;-89
2023/12/13 06:54:39;;;;;;;4.63;1.90;;;;;;;10.14;100.00;96544.44;4104729;28;20664;-90
2023/12/13 06:56:42;;;;;;;3.40;2.00;;;;;;;10.15;100.00;96548.66;4100676;28;20636;-90
2023/12/13 06:58:45;;;;;;;6.10;2.00;;;;;;;10.14;100.00;96545.25;4085316;28;20661;-90
2023/12/13 07:00:49;;;;;;;2.90;1.50;;;;;;;10.13;100.00;96545.38;4109913;28;20660;-90
2023/12/13 07:02:53;;;;;;;3.20;1.43;;;;;;;10.11;100.00;96547.31;4087022;28;20661;-89
2023/12/13 07:04:56;;;;;;;3.63;2.00;;;;;;;10.11;100.00;96542.94;4103569;28;20760;-89
2023/12/13 07:07:00;;;;;;;6.10;1.80;;;;;;;10.10;100.00;96541.31;4108067;28;20635;-92
2023/12/13 07:09:05;;;;;;;3.90;2.10;;;;;;;10.08;100.00;96540.59;4108456;28;20663;-93
2023/12/13 07:11:09;;;;;;;5.07;2.63;;;;;;;10.07;100.00;96540.75;4110198;28;20633;-91
2023/12/13 07:13:12;;;;;;;3.43;2.30;;;;;;;10.06;100.00;96547.75;4093324;28;20647;-91
2023/12/13 07:15:15;;;;;;;4.93;2.63;;;;;;;10.07;100.00;96536.38;4088004;28;20617;-93
2023/12/13 07:17:19;;;;;;;4.00;2.00;;;;;;;10.08;100.00;96540.59;4108865;28;20630;-92
2023/12/13 07:19:24;;;;;;;3.97;2.13;;;;;;;10.08;100.00;96538.00;4095222;28;20649;-92
2023/12/13 07:21:26;;;;;;;4.03;2.60;;;;;;;10.10;100.00;96535.25;4111034;28;20615;-92
2023/12/13 07:23:31;;;;;;;3.07;2.13;;;;;;;10.13;100.00;96534.97;4081374;29;20626;-93
2023/12/13 07:25:36;;;;;;;3.57;2.40;;;;;;;10.13;100.00;96530.59;4105924;28;20640;-92
2023/12/13 07:27:39;;;;;;;4.00;2.53;;;;;;;10.16;100.00;96538.09;4107109;28;20637;-92
2023/12/13 07:29:43;;;;;;;3.10;2.10;;;;;;;10.17;100.00;96537.16;4093233;28;20752;-92
2023/12/13 07:31:46;;;;;;;4.68;2.40;;;;;;;10.17;100.00;96531.94;4100307;28;20749;-91
2023/12/13 07:33:50;;;;;;;3.80;2.50;;;;;;;10.19;100.00;96539.63;4081196;29;20286;-93
2023/12/13 07:35:54;;;;;;;6.60;4.60;;;;;;;10.20;100.00;96538.69;4090632;28;20626;-93
2023/12/13 07:37:58;;;;;;;5.73;4.40;;;;;;;10.22;100.00;96547.16;4113440;28;20684;-93
2023/12/13 07:40:00;;;;;;;8.87;5.50;;;;;;;10.24;100.00;96535.66;4082793;29;20801;-93
2023/12/13 07:42:04;;;;;;;15.00;13.27;;;;;;;10.28;100.00;96542.19;4083812;29;20697;-91
2023/12/13 07:44:07;;;;;;;30.45;27.40;;;;;;;10.28;100.00;96541.38;4095094;28;20625;-91
2023/12/13 07:46:11;;;;;;;9.27;7.73;;;;;;;10.32;100.00;96540.97;4106995;28;20754;-91
2023/12/13 07:48:14;;;;;;;10.60;9.20;;;;;;;10.30;100.00;96535.09;4090418;28;21529;-91
2023/12/13 07:50:30;;;;;;;7.17;5.87;;;;;;;10.28;100.00;96525.75;4113619;28;20659;-91
2023/12/13 07:52:36;;;;;;;4.97;3.30;;;;;;;10.29;100.00;96522.19;4113656;28;20663;-91
2023/12/13 07:54:39;;;;;;;5.43;3.20;;;;;;;10.26;100.00;96523.28;4097488;28;20676;-90
2023/12/13 07:56:45;;;;;;;5.70;3.17;;;;;;;10.28;100.00;96521.34;4105527;28;20617;-91
2023/12/13 07:58:48;;;;;;;5.03;2.57;;;;;;;10.30;100.00;96514.25;4109004;28;20686;-91
2023/12/13 08:00:51;;;;;;;4.20;2.27;;;;;;;10.31;99.44;96509.84;4112557;28;21217;-91
2023/12/13 08:02:54;;;;;;;2.70;1.77;;;;;;;10.32;100.00;96520.13;4110351;28;20632;-91
2023/12/13 08:04:58;;;;;;;5.93;1.60;;;;;;;10.34;100.00;96529.44;4094543;28;20680;-92
2023/12/13 08:07:01;;;;;;;3.33;2.20;;;;;;;10.38;100.00;96533.41;4099127;28;20632;-93
2023/12/13 08:09:09;;;;;;;2.70;1.80;;;;;;;10.43;99.89;96538.19;4092068;28;20634;-92
2023/12/13 08:11:12;;;;;;;4.10;2.00;;;;;;;10.44;99.90;96535.44;4099450;28;20750;-93
2023/12/13 08:13:15;;;;;;;2.70;1.70;;;;;;;10.45;99.47;96531.06;4114369;28;20632;-93
2023/12/13 08:15:19;;;;;;;3.07;2.07;;;;;;;10.48;100.00;96541.22;4113367;28;20620;-92
2023/12/13 08:17:22;;;;;;;4.20;2.30;;;;;;;10.49;100.00;96538.47;4116713;28;20632;-92
2023/12/13 08:19:25;;;;;;;9.00;7.97;;;;;;;10.49;99.94;96540.22;4096182;28;20694;-92
2023/12/13 08:21:30;;;;;;;14.40;13.00;;;;;;;10.52;98.91;96539.94;4107013;28;20645;-93
2023/12/13 08:23:33;;;;;;;10.57;7.47;;;;;;;10.55;99.27;96534.44;4105316;28;20653;-93
2023/12/13 08:25:39;;;;;;;12.53;10.17;;;;;;;10.54;99.38;96530.19;4093884;28;20633;-92
2023/12/13 08:27:44;;;;;;;6.83;5.47;;;;;;;10.52;99.51;96537.34;4095523;28;20655;-92
2023/12/13 08:29:48;;;;;;;12.13;5.90;;;;;;;10.53;100.00;96531.97;4113416;28;20640;-92
2023/12/13 08:31:51;;;;;;;13.90;8.10;;;;;;;10.52;99.41;96532.13;4078331;29;21539;-92
2023/12/13 08:33:54;;;;;;;7.50;5.30;;;;;;;10.53;100.00;96536.38;4107746;28;20646;-92
2023/12/13 08:35:59;;;;;;;7.20;5.33;;;;;;;10.55;100.00;96539.66;4107123;28;21008;-92
2023/12/13 08:38:02;;;;;;;9.00;5.43;;;;;;;10.53;100.00;96534.59;4093832;28;20639;-89
2023/12/13 08:40:07;;;;;;;8.00;4.97;;;;;;;10.54;99.72;96538.00;4094671;28;20665;-92
2023/12/13 08:42:11;;;;;;;6.27;4.87;;;;;;;10.55;100.00;96544.88;4106317;28;20719;-91
2023/12/13 08:44:15;;;;;;;5.93;2.97;;;;;;;10.53;100.00;96539.00;4085796;28;20634;-91
2023/12/13 08:46:18;;;;;;;3.90;2.87;;;;;;;10.55;100.00;96531.84;4097630;28;20660;-93
2023/12/13 08:48:21;;;;;;;4.33;2.50;;;;;;;10.57;100.00;96533.34;4082188;29;20717;-91
2023/12/13 08:50:25;;;;;;;4.63;2.80;;;;;;;10.58;99.13;96539.38;4108184;28;20716;-92
2023/12/13 08:52:29;;;;;;;4.80;2.27;;;;;;;10.61;100.00;96531.28;4091433;28;21014;-92
2023/12/13 08:54:33;;;;;;;3.63;1.90;;;;;;;10.59;100.00;96528.81;4081529;29;20621;-92
2023/12/13 08:56:36;;;;;;;3.60;2.13;;;;;;;10.57;99.34;96524.69;4095297;28;20632;-91
2023/12/13 08:58:41;;;;;;;6.70;2.90;;;;;;;10.58;99.95;96532.38;4095230;28;20748;-92
2023/12/13 09:00:44;;;;;;;4.60;2.50;;;;;;;10.59;100.00;96528.00;4111077;28;20759;-91
2023/12/13 09:02:47;;;;;;;3.20;1.90;;;;;;;10.56;99.58;96520.47;4106993;28;20727;-92
2023/12/13 09:04:49;;;;;;;4.03;2.37;;;;;;;10.61;100.00;96529.47;4104778;28;20658;-92
2023/12/13 09:06:53;;;;;;;2.77;1.40;;;;;;;10.66;99.68;96531.66;4093138;28;21021;-92
2023/12/13 09:08:56;;;;;;;8.27;5.87;;;;;;;10.68;100.00;96527.13;4108137;28;20620;-92
2023/12/13 09:10:59;;;;;;;12.33;8.10;;;;;;;10.69;100.00;96529.59;4094339;28;20637;-92
2023/12/13 09:13:03;;;;;;;10.03;8.60;;;;;;;10.69;99.81;96529.59;4096645;28;20629;-93
2023/12/13 09:15:08;;;;;;;10.27;8.20;;;;;;;10.68;100.00;96532.34;4095083;28;20667;-93
2023/12/13 09:17:11;;;;;;;14.37;10.57;;;;;;;10.67;99.53;96526.28;4092298;28;20638;-93
2023/12/13 09:19:16;;;;;;;11.23;9.10;;;;;;;10.64;100.00;96526.56;4105486;28;21201;-92
2023/12/13 09:21:19;;;;;;;88.70;65.20;;;;;;;10.67;100.00;96523.69;4095533;28;24614;-93
2023/12/13 09:23:23;;;;;;;19.50;14.70;;;;;;;10.67;100.00;96526.28;4079366;29;20630;-92
2023/12/13 09:25:27;;;;;;;10.87;8.27;;;;;;;10.69;100.00;96536.56;4093336;28;20629;-93
2023/12/13 09:27:30;;;;;;;12.20;8.93;;;;;;;10.72;100.00;96539.75;4108874;28;20731;-93
2023/12/13 09:29:34;;;;;;;10.57;8.70;;;;;;;10.74;100.00;96537.00;4089497;28;20630;-93
2023/12/13 09:31:39;;;;;;;12.97;9.77;;;;;;;10.75;100.00;96541.22;4089118;28;20659;-94
2023/12/13 09:33:42;;;;;;;22.27;14.33;;;;;;;10.77;100.00;96541.91;4106830;28;20771;-91